Weather at Wells Fargo Bank Operations Center Heliport

Public forecast

Using degrees Fahrenheit for public forecast. Weather courtesy of forecast.io.

Closest aviation weather report (METAR) to Wells Fargo Bank Operations Center Heliport

Closest report is Palo Alto Airport of Santa Clara County, 8.3 nm (15.4 km) SW.

2024/05/30 22:47 (retrieved 43 minutes ago)

KPAO 302247Z 33010KT 10SM SKC 23/13 A2991

Closest aviation forecast (TAF) to Wells Fargo Bank Operations Center Heliport

Closest forecast is Norman Y. Mineta San Jose International Airport, 11.4 nm (21.1 km) SSE.

2024/05/30 18:22 (retrieved 5 hours ago)

TAF KSJC 301720Z 3018/3118 VRB04KT P6SM SKC FM302000 32013KT P6SM SKC FM310500 VRB05KT P6SM SKC